sensor_id;sensor_type;location;lat;lon;timestamp;P1;durP1;ratioP1;P2;durP2;ratioP2
68256;SDS011;55069;51.568;4.656;2023-05-07T00:02:01;10.73;;;8.30;;
68256;SDS011;55069;51.568;4.656;2023-05-07T00:04:28;10.07;;;7.43;;
68256;SDS011;55069;51.568;4.656;2023-05-07T00:06:53;13.80;;;9.27;;
68256;SDS011;55069;51.568;4.656;2023-05-07T00:09:19;10.27;;;8.30;;
68256;SDS011;55069;51.568;4.656;2023-05-07T00:11:44;11.80;;;8.02;;
68256;SDS011;55069;51.568;4.656;2023-05-07T00:14:10;14.53;;;10.63;;
68256;SDS011;55069;51.568;4.656;2023-05-07T00:16:35;11.10;;;8.03;;
68256;SDS011;55069;51.568;4.656;2023-05-07T00:19:01;10.18;;;7.90;;
68256;SDS011;55069;51.568;4.656;2023-05-07T00:21:26;11.33;;;9.30;;
68256;SDS011;55069;51.568;4.656;2023-05-07T00:23:53;13.63;;;9.97;;
68256;SDS011;55069;51.568;4.656;2023-05-07T00:26:19;11.82;;;8.77;;
68256;SDS011;55069;51.568;4.656;2023-05-07T00:28:47;13.00;;;9.75;;
68256;SDS011;55069;51.568;4.656;2023-05-07T00:31:12;10.93;;;7.37;;
68256;SDS011;55069;51.568;4.656;2023-05-07T00:33:38;10.18;;;8.77;;
68256;SDS011;55069;51.568;4.656;2023-05-07T00:36:04;14.43;;;10.63;;
68256;SDS011;55069;51.568;4.656;2023-05-07T00:38:30;11.10;;;8.07;;
68256;SDS011;55069;51.568;4.656;2023-05-07T00:40:55;11.88;;;9.65;;
68256;SDS011;55069;51.568;4.656;2023-05-07T00:43:21;11.52;;;9.88;;
68256;SDS011;55069;51.568;4.656;2023-05-07T00:45:46;11.03;;;9.17;;
68256;SDS011;55069;51.568;4.656;2023-05-07T00:48:12;10.50;;;8.82;;
68256;SDS011;55069;51.568;4.656;2023-05-07T00:50:38;10.00;;;8.88;;
68256;SDS011;55069;51.568;4.656;2023-05-07T00:53:04;11.07;;;9.50;;
68256;SDS011;55069;51.568;4.656;2023-05-07T00:55:31;11.35;;;9.05;;
68256;SDS011;55069;51.568;4.656;2023-05-07T00:57:56;11.57;;;10.00;;
68256;SDS011;55069;51.568;4.656;2023-05-07T01:00:22;15.68;;;8.70;;
68256;SDS011;55069;51.568;4.656;2023-05-07T01:02:49;15.18;;;9.40;;
68256;SDS011;55069;51.568;4.656;2023-05-07T01:05:15;11.17;;;8.67;;
68256;SDS011;55069;51.568;4.656;2023-05-07T01:07:44;14.85;;;11.93;;
68256;SDS011;55069;51.568;4.656;2023-05-07T01:10:10;13.88;;;9.60;;
68256;SDS011;55069;51.568;4.656;2023-05-07T01:12:37;12.40;;;9.93;;
68256;SDS011;55069;51.568;4.656;2023-05-07T01:15:04;8.70;;;7.80;;
68256;SDS011;55069;51.568;4.656;2023-05-07T01:17:33;12.40;;;10.02;;
68256;SDS011;55069;51.568;4.656;2023-05-07T01:20:06;20.50;;;10.05;;
68256;SDS011;55069;51.568;4.656;2023-05-07T01:22:33;16.80;;;9.98;;
68256;SDS011;55069;51.568;4.656;2023-05-07T01:25:02;10.83;;;8.30;;
68256;SDS011;55069;51.568;4.656;2023-05-07T01:27:30;10.25;;;9.25;;
68256;SDS011;55069;51.568;4.656;2023-05-07T01:29:56;14.75;;;10.88;;
68256;SDS011;55069;51.568;4.656;2023-05-07T01:32:29;12.35;;;9.55;;
68256;SDS011;55069;51.568;4.656;2023-05-07T01:34:59;14.93;;;10.35;;
68256;SDS011;55069;51.568;4.656;2023-05-07T01:37:27;12.67;;;8.53;;
68256;SDS011;55069;51.568;4.656;2023-05-07T01:39:53;13.13;;;9.48;;
68256;SDS011;55069;51.568;4.656;2023-05-07T01:42:19;11.07;;;9.82;;
68256;SDS011;55069;51.568;4.656;2023-05-07T01:44:45;12.77;;;9.70;;
68256;SDS011;55069;51.568;4.656;2023-05-07T01:47:11;9.20;;;8.15;;
68256;SDS011;55069;51.568;4.656;2023-05-07T01:49:39;13.73;;;8.82;;
68256;SDS011;55069;51.568;4.656;2023-05-07T01:52:05;10.75;;;7.60;;
68256;SDS011;55069;51.568;4.656;2023-05-07T01:54:31;13.07;;;7.57;;
68256;SDS011;55069;51.568;4.656;2023-05-07T01:56:57;7.80;;;6.07;;
68256;SDS011;55069;51.568;4.656;2023-05-07T01:59:23;9.80;;;8.60;;
68256;SDS011;55069;51.568;4.656;2023-05-07T02:01:49;13.57;;;9.07;;
68256;SDS011;55069;51.568;4.656;2023-05-07T02:04:14;8.30;;;7.45;;
68256;SDS011;55069;51.568;4.656;2023-05-07T02:06:40;7.63;;;6.72;;
68256;SDS011;55069;51.568;4.656;2023-05-07T02:09:08;10.40;;;7.03;;
68256;SDS011;55069;51.568;4.656;2023-05-07T02:11:39;9.83;;;8.57;;
68256;SDS011;55069;51.568;4.656;2023-05-07T02:14:05;9.05;;;7.28;;
68256;SDS011;55069;51.568;4.656;2023-05-07T02:16:31;10.30;;;7.83;;
68256;SDS011;55069;51.568;4.656;2023-05-07T02:18:56;9.88;;;7.65;;
68256;SDS011;55069;51.568;4.656;2023-05-07T02:21:23;10.88;;;8.27;;
68256;SDS011;55069;51.568;4.656;2023-05-07T02:23:50;10.57;;;8.73;;
68256;SDS011;55069;51.568;4.656;2023-05-07T02:26:15;12.00;;;7.55;;
68256;SDS011;55069;51.568;4.656;2023-05-07T02:28:41;12.00;;;8.57;;
68256;SDS011;55069;51.568;4.656;2023-05-07T02:31:06;12.27;;;8.98;;
68256;SDS011;55069;51.568;4.656;2023-05-07T02:33:33;11.35;;;8.20;;
68256;SDS011;55069;51.568;4.656;2023-05-07T02:36:10;8.73;;;7.30;;
68256;SDS011;55069;51.568;4.656;2023-05-07T02:38:49;9.68;;;7.45;;
68256;SDS011;55069;51.568;4.656;2023-05-07T02:41:15;11.50;;;8.13;;
68256;SDS011;55069;51.568;4.656;2023-05-07T02:43:40;12.20;;;9.98;;
68256;SDS011;55069;51.568;4.656;2023-05-07T02:46:07;10.07;;;7.57;;
68256;SDS011;55069;51.568;4.656;2023-05-07T02:48:36;8.35;;;7.15;;
68256;SDS011;55069;51.568;4.656;2023-05-07T02:51:03;11.57;;;8.13;;
68256;SDS011;55069;51.568;4.656;2023-05-07T02:53:30;9.25;;;8.35;;
68256;SDS011;55069;51.568;4.656;2023-05-07T02:55:56;9.15;;;7.03;;
68256;SDS011;55069;51.568;4.656;2023-05-07T02:58:23;9.30;;;7.93;;
68256;SDS011;55069;51.568;4.656;2023-05-07T03:00:49;8.48;;;7.20;;
68256;SDS011;55069;51.568;4.656;2023-05-07T03:03:40;11.68;;;8.85;;
68256;SDS011;55069;51.568;4.656;2023-05-07T03:06:06;11.52;;;7.40;;
68256;SDS011;55069;51.568;4.656;2023-05-07T03:08:32;8.98;;;7.82;;
68256;SDS011;55069;51.568;4.656;2023-05-07T03:10:58;11.00;;;8.77;;
68256;SDS011;55069;51.568;4.656;2023-05-07T03:13:24;9.40;;;8.40;;
68256;SDS011;55069;51.568;4.656;2023-05-07T03:15:50;10.95;;;8.52;;
68256;SDS011;55069;51.568;4.656;2023-05-07T03:18:15;10.30;;;6.85;;
68256;SDS011;55069;51.568;4.656;2023-05-07T03:20:41;15.83;;;10.77;;
68256;SDS011;55069;51.568;4.656;2023-05-07T03:23:07;11.55;;;9.80;;
68256;SDS011;55069;51.568;4.656;2023-05-07T03:25:33;8.10;;;7.03;;
68256;SDS011;55069;51.568;4.656;2023-05-07T03:27:58;13.57;;;9.48;;
68256;SDS011;55069;51.568;4.656;2023-05-07T03:30:32;12.60;;;8.77;;
68256;SDS011;55069;51.568;4.656;2023-05-07T03:32:58;8.85;;;6.70;;
68256;SDS011;55069;51.568;4.656;2023-05-07T03:35:24;10.60;;;9.10;;
68256;SDS011;55069;51.568;4.656;2023-05-07T03:37:49;10.40;;;6.47;;
68256;SDS011;55069;51.568;4.656;2023-05-07T03:40:16;9.30;;;7.65;;
68256;SDS011;55069;51.568;4.656;2023-05-07T03:42:49;9.40;;;8.17;;
68256;SDS011;55069;51.568;4.656;2023-05-07T03:45:17;9.25;;;8.35;;
68256;SDS011;55069;51.568;4.656;2023-05-07T03:47:47;13.93;;;8.80;;
68256;SDS011;55069;51.568;4.656;2023-05-07T03:50:17;11.07;;;8.70;;
68256;SDS011;55069;51.568;4.656;2023-05-07T03:52:42;8.53;;;7.07;;
68256;SDS011;55069;51.568;4.656;2023-05-07T03:55:09;7.90;;;7.07;;
68256;SDS011;55069;51.568;4.656;2023-05-07T03:57:37;9.32;;;7.38;;
68256;SDS011;55069;51.568;4.656;2023-05-07T04:00:03;12.00;;;10.25;;
68256;SDS011;55069;51.568;4.656;2023-05-07T04:02:34;9.43;;;8.43;;
68256;SDS011;55069;51.568;4.656;2023-05-07T04:05:01;10.27;;;9.15;;
68256;SDS011;55069;51.568;4.656;2023-05-07T04:07:27;11.13;;;8.18;;
68256;SDS011;55069;51.568;4.656;2023-05-07T04:09:53;10.13;;;8.97;;
68256;SDS011;55069;51.568;4.656;2023-05-07T04:12:19;10.70;;;9.45;;
68256;SDS011;55069;51.568;4.656;2023-05-07T04:14:45;10.60;;;8.17;;
68256;SDS011;55069;51.568;4.656;2023-05-07T04:17:11;16.52;;;12.20;;
68256;SDS011;55069;51.568;4.656;2023-05-07T04:19:37;15.27;;;11.60;;
68256;SDS011;55069;51.568;4.656;2023-05-07T04:22:03;12.43;;;11.13;;
68256;SDS011;55069;51.568;4.656;2023-05-07T04:24:32;9.53;;;7.03;;
68256;SDS011;55069;51.568;4.656;2023-05-07T04:27:00;11.27;;;9.02;;
68256;SDS011;55069;51.568;4.656;2023-05-07T04:29:25;11.67;;;9.30;;
68256;SDS011;55069;51.568;4.656;2023-05-07T04:31:51;16.02;;;10.50;;
68256;SDS011;55069;51.568;4.656;2023-05-07T04:34:17;13.77;;;10.57;;
68256;SDS011;55069;51.568;4.656;2023-05-07T04:36:43;13.10;;;11.70;;
68256;SDS011;55069;51.568;4.656;2023-05-07T04:39:10;13.48;;;11.93;;
68256;SDS011;55069;51.568;4.656;2023-05-07T04:41:38;9.90;;;8.90;;
68256;SDS011;55069;51.568;4.656;2023-05-07T04:44:05;10.32;;;9.07;;
68256;SDS011;55069;51.568;4.656;2023-05-07T04:46:32;11.67;;;8.73;;
68256;SDS011;55069;51.568;4.656;2023-05-07T04:48:57;10.45;;;8.48;;
68256;SDS011;55069;51.568;4.656;2023-05-07T04:51:23;15.80;;;13.17;;
68256;SDS011;55069;51.568;4.656;2023-05-07T04:53:49;13.65;;;10.68;;
68256;SDS011;55069;51.568;4.656;2023-05-07T04:56:15;10.20;;;8.45;;
68256;SDS011;55069;51.568;4.656;2023-05-07T04:58:43;14.18;;;12.13;;
68256;SDS011;55069;51.568;4.656;2023-05-07T05:01:09;14.43;;;12.35;;
68256;SDS011;55069;51.568;4.656;2023-05-07T05:03:36;16.80;;;13.45;;
68256;SDS011;55069;51.568;4.656;2023-05-07T05:06:03;16.90;;;13.93;;
68256;SDS011;55069;51.568;4.656;2023-05-07T05:08:32;14.48;;;12.80;;
68256;SDS011;55069;51.568;4.656;2023-05-07T05:11:00;15.15;;;12.55;;
68256;SDS011;55069;51.568;4.656;2023-05-07T05:13:26;16.80;;;11.80;;
68256;SDS011;55069;51.568;4.656;2023-05-07T05:15:52;17.73;;;12.55;;
68256;SDS011;55069;51.568;4.656;2023-05-07T05:18:18;12.13;;;10.93;;
68256;SDS011;55069;51.568;4.656;2023-05-07T05:20:44;15.80;;;13.05;;
68256;SDS011;55069;51.568;4.656;2023-05-07T05:23:11;15.18;;;12.75;;
68256;SDS011;55069;51.568;4.656;2023-05-07T05:25:36;14.83;;;12.90;;
68256;SDS011;55069;51.568;4.656;2023-05-07T05:28:04;15.35;;;12.80;;
68256;SDS011;55069;51.568;4.656;2023-05-07T05:30:32;15.70;;;13.35;;
68256;SDS011;55069;51.568;4.656;2023-05-07T05:32:58;17.37;;;15.00;;
68256;SDS011;55069;51.568;4.656;2023-05-07T05:35:25;22.52;;;14.65;;
68256;SDS011;55069;51.568;4.656;2023-05-07T05:37:51;20.47;;;15.47;;
68256;SDS011;55069;51.568;4.656;2023-05-07T05:40:18;19.17;;;14.60;;
68256;SDS011;55069;51.568;4.656;2023-05-07T05:42:43;15.37;;;13.77;;
68256;SDS011;55069;51.568;4.656;2023-05-07T05:45:10;16.42;;;14.68;;
68256;SDS011;55069;51.568;4.656;2023-05-07T05:47:37;17.92;;;15.20;;
68256;SDS011;55069;51.568;4.656;2023-05-07T05:50:03;19.35;;;16.38;;
68256;SDS011;55069;51.568;4.656;2023-05-07T05:52:31;21.73;;;17.50;;
68256;SDS011;55069;51.568;4.656;2023-05-07T05:54:57;20.17;;;17.57;;
68256;SDS011;55069;51.568;4.656;2023-05-07T05:57:24;21.98;;;18.05;;
68256;SDS011;55069;51.568;4.656;2023-05-07T05:59:50;22.23;;;17.15;;
68256;SDS011;55069;51.568;4.656;2023-05-07T06:02:15;19.33;;;16.63;;
68256;SDS011;55069;51.568;4.656;2023-05-07T06:04:41;19.55;;;16.98;;
68256;SDS011;55069;51.568;4.656;2023-05-07T06:07:08;19.20;;;16.17;;
68256;SDS011;55069;51.568;4.656;2023-05-07T06:09:34;22.53;;;17.07;;
68256;SDS011;55069;51.568;4.656;2023-05-07T06:12:00;19.35;;;16.88;;
68256;SDS011;55069;51.568;4.656;2023-05-07T06:14:26;24.60;;;17.33;;
68256;SDS011;55069;51.568;4.656;2023-05-07T06:16:54;21.37;;;18.00;;
68256;SDS011;55069;51.568;4.656;2023-05-07T06:19:19;20.75;;;17.40;;
68256;SDS011;55069;51.568;4.656;2023-05-07T06:21:48;23.10;;;18.40;;
68256;SDS011;55069;51.568;4.656;2023-05-07T06:24:15;22.50;;;17.60;;
68256;SDS011;55069;51.568;4.656;2023-05-07T06:26:40;23.13;;;17.52;;
68256;SDS011;55069;51.568;4.656;2023-05-07T06:29:06;20.95;;;17.90;;
68256;SDS011;55069;51.568;4.656;2023-05-07T06:31:33;21.00;;;17.73;;
68256;SDS011;55069;51.568;4.656;2023-05-07T06:34:04;21.98;;;17.98;;
68256;SDS011;55069;51.568;4.656;2023-05-07T06:36:34;21.02;;;18.17;;
68256;SDS011;55069;51.568;4.656;2023-05-07T06:39:07;21.83;;;17.60;;
68256;SDS011;55069;51.568;4.656;2023-05-07T06:41:33;23.97;;;18.90;;
68256;SDS011;55069;51.568;4.656;2023-05-07T06:44:05;22.92;;;18.65;;
68256;SDS011;55069;51.568;4.656;2023-05-07T06:46:37;20.90;;;18.13;;
68256;SDS011;55069;51.568;4.656;2023-05-07T06:49:04;26.42;;;19.70;;
68256;SDS011;55069;51.568;4.656;2023-05-07T06:51:30;24.57;;;19.87;;
68256;SDS011;55069;51.568;4.656;2023-05-07T06:54:00;22.77;;;19.55;;
68256;SDS011;55069;51.568;4.656;2023-05-07T06:56:26;22.80;;;19.02;;
68256;SDS011;55069;51.568;4.656;2023-05-07T06:58:52;24.97;;;19.77;;
68256;SDS011;55069;51.568;4.656;2023-05-07T07:01:19;25.67;;;20.77;;
68256;SDS011;55069;51.568;4.656;2023-05-07T07:03:45;25.33;;;19.30;;
68256;SDS011;55069;51.568;4.656;2023-05-07T07:06:11;24.23;;;19.10;;
68256;SDS011;55069;51.568;4.656;2023-05-07T07:08:36;25.60;;;19.40;;
68256;SDS011;55069;51.568;4.656;2023-05-07T07:11:04;25.05;;;20.38;;
68256;SDS011;55069;51.568;4.656;2023-05-07T07:13:31;24.70;;;19.42;;
68256;SDS011;55069;51.568;4.656;2023-05-07T07:15:58;21.30;;;18.30;;
68256;SDS011;55069;51.568;4.656;2023-05-07T07:18:25;24.50;;;20.20;;
68256;SDS011;55069;51.568;4.656;2023-05-07T07:20:52;25.20;;;20.15;;
68256;SDS011;55069;51.568;4.656;2023-05-07T07:23:17;24.90;;;19.10;;
68256;SDS011;55069;51.568;4.656;2023-05-07T07:25:43;26.35;;;19.45;;
68256;SDS011;55069;51.568;4.656;2023-05-07T07:28:10;25.08;;;19.20;;
68256;SDS011;55069;51.568;4.656;2023-05-07T07:30:38;21.15;;;18.52;;
68256;SDS011;55069;51.568;4.656;2023-05-07T07:33:05;23.67;;;19.17;;
68256;SDS011;55069;51.568;4.656;2023-05-07T07:35:34;24.55;;;18.63;;
68256;SDS011;55069;51.568;4.656;2023-05-07T07:38:01;23.55;;;18.90;;
68256;SDS011;55069;51.568;4.656;2023-05-07T07:40:28;22.92;;;18.20;;
68256;SDS011;55069;51.568;4.656;2023-05-07T07:42:53;21.33;;;17.77;;
68256;SDS011;55069;51.568;4.656;2023-05-07T07:45:20;22.00;;;17.02;;
68256;SDS011;55069;51.568;4.656;2023-05-07T07:47:47;20.80;;;16.42;;
68256;SDS011;55069;51.568;4.656;2023-05-07T07:50:13;20.70;;;16.83;;
68256;SDS011;55069;51.568;4.656;2023-05-07T07:52:39;19.40;;;16.95;;
68256;SDS011;55069;51.568;4.656;2023-05-07T07:55:06;21.15;;;16.20;;
68256;SDS011;55069;51.568;4.656;2023-05-07T07:57:32;20.30;;;15.73;;
68256;SDS011;55069;51.568;4.656;2023-05-07T07:59:59;19.53;;;16.13;;
68256;SDS011;55069;51.568;4.656;2023-05-07T08:02:25;23.25;;;17.45;;
68256;SDS011;55069;51.568;4.656;2023-05-07T08:04:51;18.98;;;16.90;;
68256;SDS011;55069;51.568;4.656;2023-05-07T08:07:16;20.30;;;17.07;;
68256;SDS011;55069;51.568;4.656;2023-05-07T08:09:46;20.95;;;17.15;;
68256;SDS011;55069;51.568;4.656;2023-05-07T08:12:13;21.08;;;17.15;;
68256;SDS011;55069;51.568;4.656;2023-05-07T08:14:39;21.47;;;16.47;;
68256;SDS011;55069;51.568;4.656;2023-05-07T08:17:06;17.17;;;14.80;;
68256;SDS011;55069;51.568;4.656;2023-05-07T08:19:33;19.15;;;15.52;;
68256;SDS011;55069;51.568;4.656;2023-05-07T08:21:59;16.13;;;13.68;;
68256;SDS011;55069;51.568;4.656;2023-05-07T08:24:25;19.88;;;13.80;;
68256;SDS011;55069;51.568;4.656;2023-05-07T08:26:52;19.50;;;14.53;;
68256;SDS011;55069;51.568;4.656;2023-05-07T08:29:18;17.10;;;15.27;;
68256;SDS011;55069;51.568;4.656;2023-05-07T08:31:45;19.15;;;14.98;;
68256;SDS011;55069;51.568;4.656;2023-05-07T08:34:11;16.92;;;14.20;;
68256;SDS011;55069;51.568;4.656;2023-05-07T08:36:40;17.88;;;12.63;;
68256;SDS011;55069;51.568;4.656;2023-05-07T08:39:08;16.13;;;14.40;;
68256;SDS011;55069;51.568;4.656;2023-05-07T08:41:34;15.45;;;13.60;;
68256;SDS011;55069;51.568;4.656;2023-05-07T08:44:01;16.27;;;13.65;;
68256;SDS011;55069;51.568;4.656;2023-05-07T08:46:31;14.30;;;12.77;;
68256;SDS011;55069;51.568;4.656;2023-05-07T08:48:57;13.40;;;11.88;;
68256;SDS011;55069;51.568;4.656;2023-05-07T08:51:23;12.70;;;11.40;;
68256;SDS011;55069;51.568;4.656;2023-05-07T08:53:50;14.05;;;11.50;;
68256;SDS011;55069;51.568;4.656;2023-05-07T08:56:22;13.95;;;11.38;;
68256;SDS011;55069;51.568;4.656;2023-05-07T08:58:49;16.10;;;12.83;;
68256;SDS011;55069;51.568;4.656;2023-05-07T09:01:15;15.20;;;12.75;;
68256;SDS011;55069;51.568;4.656;2023-05-07T09:03:44;14.27;;;12.60;;
68256;SDS011;55069;51.568;4.656;2023-05-07T09:06:11;15.43;;;12.73;;
68256;SDS011;55069;51.568;4.656;2023-05-07T09:08:37;14.02;;;12.02;;
68256;SDS011;55069;51.568;4.656;2023-05-07T09:11:05;16.25;;;12.80;;
68256;SDS011;55069;51.568;4.656;2023-05-07T09:13:30;15.47;;;12.50;;
68256;SDS011;55069;51.568;4.656;2023-05-07T09:15:57;17.05;;;13.57;;
68256;SDS011;55069;51.568;4.656;2023-05-07T09:18:34;14.95;;;12.13;;
68256;SDS011;55069;51.568;4.656;2023-05-07T09:21:00;14.03;;;12.00;;
68256;SDS011;55069;51.568;4.656;2023-05-07T09:23:26;14.25;;;11.57;;
68256;SDS011;55069;51.568;4.656;2023-05-07T09:25:53;14.32;;;11.55;;
68256;SDS011;55069;51.568;4.656;2023-05-07T09:28:27;12.88;;;11.18;;
68256;SDS011;55069;51.568;4.656;2023-05-07T09:30:52;16.15;;;11.98;;
68256;SDS011;55069;51.568;4.656;2023-05-07T09:33:19;16.52;;;11.13;;
68256;SDS011;55069;51.568;4.656;2023-05-07T09:35:51;14.77;;;12.27;;
68256;SDS011;55069;51.568;4.656;2023-05-07T09:38:17;13.40;;;9.63;;
68256;SDS011;55069;51.568;4.656;2023-05-07T09:40:45;15.55;;;9.00;;
68256;SDS011;55069;51.568;4.656;2023-05-07T09:43:13;12.20;;;8.98;;
68256;SDS011;55069;51.568;4.656;2023-05-07T09:45:48;11.07;;;9.35;;
68256;SDS011;55069;51.568;4.656;2023-05-07T09:48:16;13.77;;;10.10;;
68256;SDS011;55069;51.568;4.656;2023-05-07T09:50:47;12.47;;;10.53;;
68256;SDS011;55069;51.568;4.656;2023-05-07T09:53:17;14.15;;;10.63;;
68256;SDS011;55069;51.568;4.656;2023-05-07T09:55:43;14.38;;;9.80;;
68256;SDS011;55069;51.568;4.656;2023-05-07T09:58:11;13.07;;;10.90;;
68256;SDS011;55069;51.568;4.656;2023-05-07T10:00:38;15.90;;;11.95;;
68256;SDS011;55069;51.568;4.656;2023-05-07T10:03:09;18.88;;;11.52;;
68256;SDS011;55069;51.568;4.656;2023-05-07T10:05:48;16.92;;;11.32;;
68256;SDS011;55069;51.568;4.656;2023-05-07T10:08:15;15.48;;;11.68;;
68256;SDS011;55069;51.568;4.656;2023-05-07T10:10:43;13.85;;;12.13;;
68256;SDS011;55069;51.568;4.656;2023-05-07T10:13:14;14.07;;;11.35;;
68256;SDS011;55069;51.568;4.656;2023-05-07T10:15:44;17.35;;;10.52;;
68256;SDS011;55069;51.568;4.656;2023-05-07T10:18:10;13.73;;;10.20;;
68256;SDS011;55069;51.568;4.656;2023-05-07T10:20:37;10.95;;;9.02;;
68256;SDS011;55069;51.568;4.656;2023-05-07T10:23:06;11.95;;;10.35;;
68256;SDS011;55069;51.568;4.656;2023-05-07T10:25:41;11.30;;;10.20;;
68256;SDS011;55069;51.568;4.656;2023-05-07T10:28:15;12.82;;;9.70;;
68256;SDS011;55069;51.568;4.656;2023-05-07T10:33:10;12.93;;;9.52;;
68256;SDS011;55069;51.568;4.656;2023-05-07T10:35:42;11.67;;;8.90;;
68256;SDS011;55069;51.568;4.656;2023-05-07T10:38:11;12.63;;;9.93;;
68256;SDS011;55069;51.568;4.656;2023-05-07T10:40:39;13.63;;;10.25;;
68256;SDS011;55069;51.568;4.656;2023-05-07T10:43:06;13.77;;;10.15;;
68256;SDS011;55069;51.568;4.656;2023-05-07T10:48:45;16.20;;;9.93;;
68256;SDS011;55069;51.568;4.656;2023-05-07T10:51:45;14.00;;;11.07;;
68256;SDS011;55069;51.568;4.656;2023-05-07T11:00:58;14.27;;;11.32;;
68256;SDS011;55069;51.568;4.656;2023-05-07T11:03:31;13.43;;;10.50;;
68256;SDS011;55069;51.568;4.656;2023-05-07T11:09:03;15.70;;;10.55;;
68256;SDS011;55069;51.568;4.656;2023-05-07T11:11:54;16.55;;;10.43;;
68256;SDS011;55069;51.568;4.656;2023-05-07T11:14:44;10.68;;;9.57;;
68256;SDS011;55069;51.568;4.656;2023-05-07T11:17:29;16.63;;;9.93;;
68256;SDS011;55069;51.568;4.656;2023-05-07T11:20:04;12.65;;;9.68;;
68256;SDS011;55069;51.568;4.656;2023-05-07T11:22:47;13.55;;;8.43;;
68256;SDS011;55069;51.568;4.656;2023-05-07T11:25:19;14.02;;;8.38;;
68256;SDS011;55069;51.568;4.656;2023-05-07T11:27:49;12.30;;;7.47;;
68256;SDS011;55069;51.568;4.656;2023-05-07T11:30:18;11.53;;;7.07;;
68256;SDS011;55069;51.568;4.656;2023-05-07T11:32:46;12.25;;;6.80;;
68256;SDS011;55069;51.568;4.656;2023-05-07T11:35:15;11.73;;;8.45;;
68256;SDS011;55069;51.568;4.656;2023-05-07T11:37:42;13.70;;;8.75;;
68256;SDS011;55069;51.568;4.656;2023-05-07T11:40:11;14.00;;;8.85;;
68256;SDS011;55069;51.568;4.656;2023-05-07T11:42:39;11.07;;;8.40;;
68256;SDS011;55069;51.568;4.656;2023-05-07T11:45:06;13.38;;;9.05;;
68256;SDS011;55069;51.568;4.656;2023-05-07T11:47:33;11.77;;;8.75;;
68256;SDS011;55069;51.568;4.656;2023-05-07T11:50:05;13.32;;;9.15;;
68256;SDS011;55069;51.568;4.656;2023-05-07T11:52:32;14.88;;;9.80;;
68256;SDS011;55069;51.568;4.656;2023-05-07T11:54:59;12.93;;;9.90;;
68256;SDS011;55069;51.568;4.656;2023-05-07T11:57:27;13.50;;;8.40;;
68256;SDS011;55069;51.568;4.656;2023-05-07T11:59:57;12.52;;;9.05;;
68256;SDS011;55069;51.568;4.656;2023-05-07T12:02:23;15.68;;;10.00;;
68256;SDS011;55069;51.568;4.656;2023-05-07T12:04:50;14.35;;;11.02;;
68256;SDS011;55069;51.568;4.656;2023-05-07T12:07:16;15.32;;;9.73;;
68256;SDS011;55069;51.568;4.656;2023-05-07T12:09:43;12.60;;;9.55;;
68256;SDS011;55069;51.568;4.656;2023-05-07T12:12:11;15.88;;;11.18;;
68256;SDS011;55069;51.568;4.656;2023-05-07T12:14:37;16.27;;;11.32;;
68256;SDS011;55069;51.568;4.656;2023-05-07T12:17:07;18.67;;;12.32;;
68256;SDS011;55069;51.568;4.656;2023-05-07T12:19:34;19.23;;;12.73;;
68256;SDS011;55069;51.568;4.656;2023-05-07T12:22:01;20.77;;;14.55;;
68256;SDS011;55069;51.568;4.656;2023-05-07T12:24:28;19.40;;;14.43;;
68256;SDS011;55069;51.568;4.656;2023-05-07T12:26:53;20.37;;;13.73;;
68256;SDS011;55069;51.568;4.656;2023-05-07T12:29:22;22.10;;;15.27;;
68256;SDS011;55069;51.568;4.656;2023-05-07T12:31:49;23.00;;;16.92;;
68256;SDS011;55069;51.568;4.656;2023-05-07T12:34:15;23.70;;;15.43;;
68256;SDS011;55069;51.568;4.656;2023-05-07T12:36:41;17.00;;;13.68;;
68256;SDS011;55069;51.568;4.656;2023-05-07T12:39:07;19.23;;;12.35;;
68256;SDS011;55069;51.568;4.656;2023-05-07T12:44:29;24.40;;;16.35;;
68256;SDS011;55069;51.568;4.656;2023-05-07T12:46:56;24.73;;;19.13;;
68256;SDS011;55069;51.568;4.656;2023-05-07T12:49:25;28.77;;;19.05;;
68256;SDS011;55069;51.568;4.656;2023-05-07T12:51:50;28.52;;;19.73;;
68256;SDS011;55069;51.568;4.656;2023-05-07T12:54:27;25.42;;;19.40;;
68256;SDS011;55069;51.568;4.656;2023-05-07T12:57:01;24.95;;;18.50;;
68256;SDS011;55069;51.568;4.656;2023-05-07T12:59:40;23.50;;;15.98;;
68256;SDS011;55069;51.568;4.656;2023-05-07T13:02:06;27.83;;;18.42;;
68256;SDS011;55069;51.568;4.656;2023-05-07T13:04:34;31.20;;;18.90;;
68256;SDS011;55069;51.568;4.656;2023-05-07T13:07:00;33.10;;;20.80;;
68256;SDS011;55069;51.568;4.656;2023-05-07T13:09:26;33.05;;;20.25;;
68256;SDS011;55069;51.568;4.656;2023-05-07T13:11:54;31.70;;;21.05;;
68256;SDS011;55069;51.568;4.656;2023-05-07T13:14:20;30.55;;;19.17;;
68256;SDS011;55069;51.568;4.656;2023-05-07T13:16:49;29.75;;;20.20;;
68256;SDS011;55069;51.568;4.656;2023-05-07T13:19:15;28.90;;;18.98;;
68256;SDS011;55069;51.568;4.656;2023-05-07T13:21:40;31.27;;;20.50;;
68256;SDS011;55069;51.568;4.656;2023-05-07T13:24:06;32.47;;;19.37;;
68256;SDS011;55069;51.568;4.656;2023-05-07T13:26:32;27.15;;;16.98;;
68256;SDS011;55069;51.568;4.656;2023-05-07T13:28:58;25.53;;;16.20;;
68256;SDS011;55069;51.568;4.656;2023-05-07T13:31:24;28.45;;;17.33;;
68256;SDS011;55069;51.568;4.656;2023-05-07T13:33:50;26.23;;;17.80;;
68256;SDS011;55069;51.568;4.656;2023-05-07T13:36:15;26.13;;;16.30;;
68256;SDS011;55069;51.568;4.656;2023-05-07T13:38:41;31.43;;;17.07;;
68256;SDS011;55069;51.568;4.656;2023-05-07T13:41:07;30.98;;;16.73;;
68256;SDS011;55069;51.568;4.656;2023-05-07T13:43:32;28.23;;;17.30;;
68256;SDS011;55069;51.568;4.656;2023-05-07T13:45:59;27.00;;;15.23;;
68256;SDS011;55069;51.568;4.656;2023-05-07T13:48:25;22.60;;;14.90;;
68256;SDS011;55069;51.568;4.656;2023-05-07T13:50:51;27.57;;;15.90;;
68256;SDS011;55069;51.568;4.656;2023-05-07T13:53:17;27.65;;;15.65;;
68256;SDS011;55069;51.568;4.656;2023-05-07T13:55:43;24.67;;;15.10;;
68256;SDS011;55069;51.568;4.656;2023-05-07T13:58:10;22.25;;;13.52;;
68256;SDS011;55069;51.568;4.656;2023-05-07T14:00:36;28.00;;;15.98;;
68256;SDS011;55069;51.568;4.656;2023-05-07T14:03:02;24.25;;;15.55;;
68256;SDS011;55069;51.568;4.656;2023-05-07T14:05:29;24.25;;;15.65;;
68256;SDS011;55069;51.568;4.656;2023-05-07T14:07:56;26.00;;;16.73;;
68256;SDS011;55069;51.568;4.656;2023-05-07T14:10:23;24.90;;;16.95;;
68256;SDS011;55069;51.568;4.656;2023-05-07T14:12:49;31.02;;;18.38;;
68256;SDS011;55069;51.568;4.656;2023-05-07T14:15:14;27.47;;;18.20;;
68256;SDS011;55069;51.568;4.656;2023-05-07T14:17:41;30.45;;;19.30;;
68256;SDS011;55069;51.568;4.656;2023-05-07T14:20:10;29.40;;;17.73;;
68256;SDS011;55069;51.568;4.656;2023-05-07T14:22:37;33.28;;;20.17;;
68256;SDS011;55069;51.568;4.656;2023-05-07T14:25:02;31.65;;;19.65;;
68256;SDS011;55069;51.568;4.656;2023-05-07T14:27:28;30.55;;;20.45;;
68256;SDS011;55069;51.568;4.656;2023-05-07T14:29:54;37.50;;;22.73;;
68256;SDS011;55069;51.568;4.656;2023-05-07T14:32:20;31.92;;;21.60;;
68256;SDS011;55069;51.568;4.656;2023-05-07T14:34:46;30.88;;;20.30;;
68256;SDS011;55069;51.568;4.656;2023-05-07T14:37:12;30.37;;;20.90;;
68256;SDS011;55069;51.568;4.656;2023-05-07T14:39:38;33.25;;;22.58;;
68256;SDS011;55069;51.568;4.656;2023-05-07T14:42:05;39.88;;;26.20;;
68256;SDS011;55069;51.568;4.656;2023-05-07T14:44:33;34.28;;;24.08;;
68256;SDS011;55069;51.568;4.656;2023-05-07T14:47:02;37.00;;;25.53;;
68256;SDS011;55069;51.568;4.656;2023-05-07T14:49:28;42.33;;;26.65;;